sensor_id;sensor_type;location;lat;lon;timestamp;P1;durP1;ratioP1;P2;durP2;ratioP2
25439;SDS011;13365;52.208;5.488;2024-02-14T00:02:22;7.47;;;5.15;;
25439;SDS011;13365;52.208;5.488;2024-02-14T00:04:50;10.88;;;5.45;;
25439;SDS011;13365;52.208;5.488;2024-02-14T00:07:19;10.75;;;5.90;;
25439;SDS011;13365;52.208;5.488;2024-02-14T00:09:45;8.82;;;6.00;;
25439;SDS011;13365;52.208;5.488;2024-02-14T00:12:11;7.18;;;5.25;;
25439;SDS011;13365;52.208;5.488;2024-02-14T00:14:37;8.13;;;5.95;;
25439;SDS011;13365;52.208;5.488;2024-02-14T00:17:03;8.88;;;6.38;;
25439;SDS011;13365;52.208;5.488;2024-02-14T00:19:30;7.63;;;5.55;;
25439;SDS011;13365;52.208;5.488;2024-02-14T00:21:56;10.07;;;6.22;;
25439;SDS011;13365;52.208;5.488;2024-02-14T00:24:21;8.98;;;6.05;;
25439;SDS011;13365;52.208;5.488;2024-02-14T00:26:48;7.53;;;5.47;;
25439;SDS011;13365;52.208;5.488;2024-02-14T00:29:15;10.32;;;5.93;;
25439;SDS011;13365;52.208;5.488;2024-02-14T00:31:40;9.65;;;6.35;;
25439;SDS011;13365;52.208;5.488;2024-02-14T00:34:09;6.68;;;5.10;;
25439;SDS011;13365;52.208;5.488;2024-02-14T00:36:36;8.52;;;5.75;;
25439;SDS011;13365;52.208;5.488;2024-02-14T00:39:01;10.20;;;6.00;;
25439;SDS011;13365;52.208;5.488;2024-02-14T00:41:27;7.40;;;5.75;;
25439;SDS011;13365;52.208;5.488;2024-02-14T00:43:55;7.88;;;5.90;;
25439;SDS011;13365;52.208;5.488;2024-02-14T00:46:21;7.53;;;5.72;;
25439;SDS011;13365;52.208;5.488;2024-02-14T00:48:47;11.43;;;7.03;;
25439;SDS011;13365;52.208;5.488;2024-02-14T00:51:12;9.82;;;6.80;;
25439;SDS011;13365;52.208;5.488;2024-02-14T00:53:38;14.88;;;7.70;;
25439;SDS011;13365;52.208;5.488;2024-02-14T00:56:04;9.55;;;6.97;;
25439;SDS011;13365;52.208;5.488;2024-02-14T00:58:30;9.48;;;6.70;;
25439;SDS011;13365;52.208;5.488;2024-02-14T01:00:56;8.55;;;6.53;;
25439;SDS011;13365;52.208;5.488;2024-02-14T01:03:22;10.38;;;6.90;;
25439;SDS011;13365;52.208;5.488;2024-02-14T01:05:48;8.82;;;6.60;;
25439;SDS011;13365;52.208;5.488;2024-02-14T01:08:13;10.18;;;7.45;;
25439;SDS011;13365;52.208;5.488;2024-02-14T01:10:39;11.25;;;7.65;;
25439;SDS011;13365;52.208;5.488;2024-02-14T01:13:05;11.73;;;8.05;;
25439;SDS011;13365;52.208;5.488;2024-02-14T01:15:31;11.10;;;8.13;;
25439;SDS011;13365;52.208;5.488;2024-02-14T01:17:58;13.77;;;9.15;;
25439;SDS011;13365;52.208;5.488;2024-02-14T01:20:24;18.17;;;8.95;;
25439;SDS011;13365;52.208;5.488;2024-02-14T01:22:49;15.68;;;10.05;;
25439;SDS011;13365;52.208;5.488;2024-02-14T01:25:15;12.73;;;9.35;;
25439;SDS011;13365;52.208;5.488;2024-02-14T01:27:40;13.65;;;9.57;;
25439;SDS011;13365;52.208;5.488;2024-02-14T01:30:07;15.95;;;9.90;;
25439;SDS011;13365;52.208;5.488;2024-02-14T01:32:34;13.55;;;9.35;;
25439;SDS011;13365;52.208;5.488;2024-02-14T01:34:59;14.55;;;10.50;;
25439;SDS011;13365;52.208;5.488;2024-02-14T01:37:25;14.00;;;9.88;;
25439;SDS011;13365;52.208;5.488;2024-02-14T01:39:52;13.57;;;10.07;;
25439;SDS011;13365;52.208;5.488;2024-02-14T01:42:17;14.20;;;10.38;;
25439;SDS011;13365;52.208;5.488;2024-02-14T01:44:43;14.30;;;9.88;;
25439;SDS011;13365;52.208;5.488;2024-02-14T01:47:09;14.40;;;10.32;;
25439;SDS011;13365;52.208;5.488;2024-02-14T01:49:35;14.95;;;10.40;;
25439;SDS011;13365;52.208;5.488;2024-02-14T01:52:02;14.10;;;10.27;;
25439;SDS011;13365;52.208;5.488;2024-02-14T01:54:29;16.77;;;10.35;;
25439;SDS011;13365;52.208;5.488;2024-02-14T01:56:56;15.10;;;10.60;;
25439;SDS011;13365;52.208;5.488;2024-02-14T01:59:23;16.55;;;10.85;;
25439;SDS011;13365;52.208;5.488;2024-02-14T02:01:49;13.02;;;10.02;;
25439;SDS011;13365;52.208;5.488;2024-02-14T02:04:17;15.07;;;9.77;;
25439;SDS011;13365;52.208;5.488;2024-02-14T02:06:43;15.02;;;9.77;;
25439;SDS011;13365;52.208;5.488;2024-02-14T02:09:09;14.98;;;9.93;;
25439;SDS011;13365;52.208;5.488;2024-02-14T02:11:50;15.77;;;10.60;;
25439;SDS011;13365;52.208;5.488;2024-02-14T02:14:19;15.45;;;10.30;;
25439;SDS011;13365;52.208;5.488;2024-02-14T02:16:45;16.05;;;10.35;;
25439;SDS011;13365;52.208;5.488;2024-02-14T02:19:11;15.82;;;10.05;;
25439;SDS011;13365;52.208;5.488;2024-02-14T02:21:37;18.17;;;11.25;;
25439;SDS011;13365;52.208;5.488;2024-02-14T02:24:02;13.38;;;9.80;;
25439;SDS011;13365;52.208;5.488;2024-02-14T02:26:28;11.82;;;9.30;;
25439;SDS011;13365;52.208;5.488;2024-02-14T02:28:54;13.82;;;9.65;;
25439;SDS011;13365;52.208;5.488;2024-02-14T02:31:20;14.07;;;9.85;;
25439;SDS011;13365;52.208;5.488;2024-02-14T02:33:46;14.60;;;9.50;;
25439;SDS011;13365;52.208;5.488;2024-02-14T02:36:12;13.52;;;9.65;;
25439;SDS011;13365;52.208;5.488;2024-02-14T02:38:37;13.55;;;10.18;;
25439;SDS011;13365;52.208;5.488;2024-02-14T02:41:03;14.10;;;9.75;;
25439;SDS011;13365;52.208;5.488;2024-02-14T02:43:33;15.65;;;9.07;;
25439;SDS011;13365;52.208;5.488;2024-02-14T02:45:58;15.05;;;9.13;;
25439;SDS011;13365;52.208;5.488;2024-02-14T02:48:24;13.95;;;9.55;;
25439;SDS011;13365;52.208;5.488;2024-02-14T02:50:50;12.57;;;8.80;;
25439;SDS011;13365;52.208;5.488;2024-02-14T02:53:16;12.63;;;9.40;;
25439;SDS011;13365;52.208;5.488;2024-02-14T02:55:42;12.80;;;8.93;;
25439;SDS011;13365;52.208;5.488;2024-02-14T02:58:08;14.48;;;9.60;;
25439;SDS011;13365;52.208;5.488;2024-02-14T03:00:34;13.30;;;9.40;;
25439;SDS011;13365;52.208;5.488;2024-02-14T03:03:00;12.05;;;8.98;;
25439;SDS011;13365;52.208;5.488;2024-02-14T03:05:27;15.52;;;9.30;;
25439;SDS011;13365;52.208;5.488;2024-02-14T03:07:56;13.40;;;9.32;;
25439;SDS011;13365;52.208;5.488;2024-02-14T03:10:23;12.23;;;8.88;;
25439;SDS011;13365;52.208;5.488;2024-02-14T03:12:50;13.27;;;8.35;;
25439;SDS011;13365;52.208;5.488;2024-02-14T03:15:16;12.43;;;9.23;;
25439;SDS011;13365;52.208;5.488;2024-02-14T03:17:43;11.85;;;9.15;;
25439;SDS011;13365;52.208;5.488;2024-02-14T03:20:10;12.30;;;8.43;;
25439;SDS011;13365;52.208;5.488;2024-02-14T03:22:39;11.60;;;8.30;;
25439;SDS011;13365;52.208;5.488;2024-02-14T03:25:13;13.40;;;7.18;;
25439;SDS011;13365;52.208;5.488;2024-02-14T03:27:41;10.30;;;7.85;;
25439;SDS011;13365;52.208;5.488;2024-02-14T03:30:07;13.68;;;8.07;;
25439;SDS011;13365;52.208;5.488;2024-02-14T03:32:33;11.00;;;7.97;;
25439;SDS011;13365;52.208;5.488;2024-02-14T03:34:59;12.70;;;8.05;;
25439;SDS011;13365;52.208;5.488;2024-02-14T03:37:26;14.25;;;8.90;;
25439;SDS011;13365;52.208;5.488;2024-02-14T03:39:51;13.93;;;8.80;;
25439;SDS011;13365;52.208;5.488;2024-02-14T03:42:17;12.95;;;8.90;;
25439;SDS011;13365;52.208;5.488;2024-02-14T03:44:44;15.60;;;10.00;;
25439;SDS011;13365;52.208;5.488;2024-02-14T03:47:10;14.55;;;9.73;;
25439;SDS011;13365;52.208;5.488;2024-02-14T03:49:37;18.95;;;10.40;;
25439;SDS011;13365;52.208;5.488;2024-02-14T03:52:03;18.15;;;11.23;;
25439;SDS011;13365;52.208;5.488;2024-02-14T03:54:34;16.33;;;10.48;;
25439;SDS011;13365;52.208;5.488;2024-02-14T03:57:01;15.35;;;10.93;;
25439;SDS011;13365;52.208;5.488;2024-02-14T03:59:26;17.45;;;10.85;;
25439;SDS011;13365;52.208;5.488;2024-02-14T04:01:52;14.60;;;10.70;;
25439;SDS011;13365;52.208;5.488;2024-02-14T04:04:18;19.50;;;9.70;;
25439;SDS011;13365;52.208;5.488;2024-02-14T04:06:44;17.35;;;11.00;;
25439;SDS011;13365;52.208;5.488;2024-02-14T04:09:10;15.73;;;10.40;;
25439;SDS011;13365;52.208;5.488;2024-02-14T04:11:36;14.98;;;9.98;;
25439;SDS011;13365;52.208;5.488;2024-02-14T04:14:02;17.67;;;10.18;;
25439;SDS011;13365;52.208;5.488;2024-02-14T04:16:27;18.08;;;10.68;;
25439;SDS011;13365;52.208;5.488;2024-02-14T04:18:53;16.75;;;10.18;;
25439;SDS011;13365;52.208;5.488;2024-02-14T04:21:20;16.13;;;10.88;;
25439;SDS011;13365;52.208;5.488;2024-02-14T04:23:45;20.67;;;11.50;;
25439;SDS011;13365;52.208;5.488;2024-02-14T04:26:19;21.27;;;12.00;;
25439;SDS011;13365;52.208;5.488;2024-02-14T04:28:47;19.60;;;11.90;;
25439;SDS011;13365;52.208;5.488;2024-02-14T04:31:13;23.55;;;13.15;;
25439;SDS011;13365;52.208;5.488;2024-02-14T04:33:39;27.27;;;13.63;;
25439;SDS011;13365;52.208;5.488;2024-02-14T04:36:05;26.17;;;13.73;;
25439;SDS011;13365;52.208;5.488;2024-02-14T04:38:31;28.55;;;13.10;;
25439;SDS011;13365;52.208;5.488;2024-02-14T04:40:57;25.48;;;13.55;;
25439;SDS011;13365;52.208;5.488;2024-02-14T04:43:23;25.75;;;13.10;;
25439;SDS011;13365;52.208;5.488;2024-02-14T04:45:50;25.45;;;13.38;;
25439;SDS011;13365;52.208;5.488;2024-02-14T04:48:16;31.38;;;13.88;;
25439;SDS011;13365;52.208;5.488;2024-02-14T04:50:42;30.10;;;14.98;;
25439;SDS011;13365;52.208;5.488;2024-02-14T04:53:08;24.75;;;12.70;;
25439;SDS011;13365;52.208;5.488;2024-02-14T04:55:33;25.73;;;12.93;;
25439;SDS011;13365;52.208;5.488;2024-02-14T04:57:59;27.33;;;12.23;;
25439;SDS011;13365;52.208;5.488;2024-02-14T05:00:25;21.90;;;11.90;;
25439;SDS011;13365;52.208;5.488;2024-02-14T05:02:51;25.42;;;12.32;;
25439;SDS011;13365;52.208;5.488;2024-02-14T05:05:16;22.95;;;12.68;;
25439;SDS011;13365;52.208;5.488;2024-02-14T05:07:42;24.27;;;11.82;;
25439;SDS011;13365;52.208;5.488;2024-02-14T05:10:08;21.83;;;11.90;;
25439;SDS011;13365;52.208;5.488;2024-02-14T05:12:33;27.23;;;12.93;;
25439;SDS011;13365;52.208;5.488;2024-02-14T05:14:59;24.35;;;14.10;;
25439;SDS011;13365;52.208;5.488;2024-02-14T05:17:24;30.48;;;14.10;;
25439;SDS011;13365;52.208;5.488;2024-02-14T05:19:50;32.47;;;14.73;;
25439;SDS011;13365;52.208;5.488;2024-02-14T05:22:16;26.48;;;13.85;;
25439;SDS011;13365;52.208;5.488;2024-02-14T05:24:41;30.92;;;15.27;;
25439;SDS011;13365;52.208;5.488;2024-02-14T05:27:07;27.92;;;14.70;;
25439;SDS011;13365;52.208;5.488;2024-02-14T05:29:33;24.73;;;13.52;;
25439;SDS011;13365;52.208;5.488;2024-02-14T05:31:58;25.30;;;14.43;;
25439;SDS011;13365;52.208;5.488;2024-02-14T05:34:24;23.10;;;13.18;;
25439;SDS011;13365;52.208;5.488;2024-02-14T05:36:49;24.98;;;13.38;;
25439;SDS011;13365;52.208;5.488;2024-02-14T05:39:16;28.23;;;14.05;;
25439;SDS011;13365;52.208;5.488;2024-02-14T05:41:42;28.27;;;13.55;;
25439;SDS011;13365;52.208;5.488;2024-02-14T05:44:08;35.33;;;13.73;;
25439;SDS011;13365;52.208;5.488;2024-02-14T05:46:33;23.27;;;13.30;;
25439;SDS011;13365;52.208;5.488;2024-02-14T05:48:59;33.08;;;13.48;;
25439;SDS011;13365;52.208;5.488;2024-02-14T05:51:24;29.42;;;14.18;;
25439;SDS011;13365;52.208;5.488;2024-02-14T05:53:50;27.27;;;13.95;;
25439;SDS011;13365;52.208;5.488;2024-02-14T05:56:16;28.63;;;13.73;;
25439;SDS011;13365;52.208;5.488;2024-02-14T05:58:41;26.35;;;12.98;;
25439;SDS011;13365;52.208;5.488;2024-02-14T06:01:07;25.52;;;13.25;;
25439;SDS011;13365;52.208;5.488;2024-02-14T06:03:33;22.00;;;13.00;;
25439;SDS011;13365;52.208;5.488;2024-02-14T06:05:58;23.75;;;12.65;;
25439;SDS011;13365;52.208;5.488;2024-02-14T06:08:24;19.15;;;12.60;;
25439;SDS011;13365;52.208;5.488;2024-02-14T06:10:51;22.52;;;12.13;;
25439;SDS011;13365;52.208;5.488;2024-02-14T06:13:17;20.52;;;10.20;;
25439;SDS011;13365;52.208;5.488;2024-02-14T06:15:42;14.48;;;9.57;;
25439;SDS011;13365;52.208;5.488;2024-02-14T06:18:08;13.82;;;9.77;;
25439;SDS011;13365;52.208;5.488;2024-02-14T06:20:34;18.58;;;10.18;;
25439;SDS011;13365;52.208;5.488;2024-02-14T06:23:00;18.25;;;8.32;;
25439;SDS011;13365;52.208;5.488;2024-02-14T06:25:26;14.43;;;8.60;;
25439;SDS011;13365;52.208;5.488;2024-02-14T06:27:51;15.07;;;9.50;;
25439;SDS011;13365;52.208;5.488;2024-02-14T06:30:19;14.15;;;9.85;;
25439;SDS011;13365;52.208;5.488;2024-02-14T06:32:44;18.73;;;9.93;;
25439;SDS011;13365;52.208;5.488;2024-02-14T06:35:10;14.02;;;8.85;;
25439;SDS011;13365;52.208;5.488;2024-02-14T06:37:36;18.38;;;10.32;;
25439;SDS011;13365;52.208;5.488;2024-02-14T06:40:02;14.57;;;9.32;;
25439;SDS011;13365;52.208;5.488;2024-02-14T06:42:27;15.40;;;9.25;;
25439;SDS011;13365;52.208;5.488;2024-02-14T06:44:53;14.35;;;9.23;;
25439;SDS011;13365;52.208;5.488;2024-02-14T06:47:19;15.32;;;9.35;;
25439;SDS011;13365;52.208;5.488;2024-02-14T06:49:44;12.23;;;8.80;;
25439;SDS011;13365;52.208;5.488;2024-02-14T06:52:10;15.15;;;8.73;;
25439;SDS011;13365;52.208;5.488;2024-02-14T06:54:35;14.23;;;8.93;;
25439;SDS011;13365;52.208;5.488;2024-02-14T06:57:01;12.98;;;8.60;;
25439;SDS011;13365;52.208;5.488;2024-02-14T06:59:27;10.88;;;7.80;;
25439;SDS011;13365;52.208;5.488;2024-02-14T07:01:53;13.25;;;8.45;;
25439;SDS011;13365;52.208;5.488;2024-02-14T07:04:20;16.95;;;9.52;;
25439;SDS011;13365;52.208;5.488;2024-02-14T07:06:50;15.00;;;9.88;;
25439;SDS011;13365;52.208;5.488;2024-02-14T07:09:19;15.95;;;10.48;;
25439;SDS011;13365;52.208;5.488;2024-02-14T07:11:44;17.20;;;10.30;;
25439;SDS011;13365;52.208;5.488;2024-02-14T07:14:14;19.92;;;11.05;;
25439;SDS011;13365;52.208;5.488;2024-02-14T07:16:39;21.45;;;12.70;;
25439;SDS011;13365;52.208;5.488;2024-02-14T07:19:05;22.17;;;13.23;;
25439;SDS011;13365;52.208;5.488;2024-02-14T07:21:30;19.63;;;12.25;;
25439;SDS011;13365;52.208;5.488;2024-02-14T07:23:58;27.17;;;14.07;;
25439;SDS011;13365;52.208;5.488;2024-02-14T07:26:23;20.92;;;12.25;;
25439;SDS011;13365;52.208;5.488;2024-02-14T07:28:49;23.73;;;13.13;;
25439;SDS011;13365;52.208;5.488;2024-02-14T07:31:14;21.27;;;12.57;;
25439;SDS011;13365;52.208;5.488;2024-02-14T07:33:40;23.52;;;13.35;;
25439;SDS011;13365;52.208;5.488;2024-02-14T07:36:05;24.20;;;14.45;;
25439;SDS011;13365;52.208;5.488;2024-02-14T07:38:31;22.70;;;14.38;;
25439;SDS011;13365;52.208;5.488;2024-02-14T07:40:57;24.00;;;13.60;;
25439;SDS011;13365;52.208;5.488;2024-02-14T07:43:22;25.02;;;14.52;;
25439;SDS011;13365;52.208;5.488;2024-02-14T07:45:48;24.75;;;15.52;;
25439;SDS011;13365;52.208;5.488;2024-02-14T07:48:13;20.63;;;13.88;;
25439;SDS011;13365;52.208;5.488;2024-02-14T07:50:39;21.85;;;14.30;;
25439;SDS011;13365;52.208;5.488;2024-02-14T07:53:04;24.40;;;14.00;;
25439;SDS011;13365;52.208;5.488;2024-02-14T07:55:31;30.23;;;13.90;;
25439;SDS011;13365;52.208;5.488;2024-02-14T07:57:56;27.65;;;14.40;;
25439;SDS011;13365;52.208;5.488;2024-02-14T08:00:22;18.30;;;12.45;;
25439;SDS011;13365;52.208;5.488;2024-02-14T08:02:48;24.52;;;12.65;;
25439;SDS011;13365;52.208;5.488;2024-02-14T08:05:14;20.73;;;13.45;;
25439;SDS011;13365;52.208;5.488;2024-02-14T08:07:40;22.05;;;14.10;;
25439;SDS011;13365;52.208;5.488;2024-02-14T08:10:05;23.70;;;14.45;;
25439;SDS011;13365;52.208;5.488;2024-02-14T08:12:31;23.17;;;14.82;;
25439;SDS011;13365;52.208;5.488;2024-02-14T08:14:57;22.48;;;15.38;;
25439;SDS011;13365;52.208;5.488;2024-02-14T08:17:22;22.42;;;14.38;;
25439;SDS011;13365;52.208;5.488;2024-02-14T08:19:48;21.88;;;15.00;;
25439;SDS011;13365;52.208;5.488;2024-02-14T08:22:13;23.65;;;15.05;;
25439;SDS011;13365;52.208;5.488;2024-02-14T08:24:39;21.75;;;14.43;;
25439;SDS011;13365;52.208;5.488;2024-02-14T08:27:04;26.10;;;14.50;;
25439;SDS011;13365;52.208;5.488;2024-02-14T08:29:31;24.15;;;14.30;;
25439;SDS011;13365;52.208;5.488;2024-02-14T08:31:57;22.88;;;14.18;;
25439;SDS011;13365;52.208;5.488;2024-02-14T08:34:22;19.98;;;14.70;;
25439;SDS011;13365;52.208;5.488;2024-02-14T08:36:49;24.65;;;14.52;;
25439;SDS011;13365;52.208;5.488;2024-02-14T08:39:14;22.92;;;14.35;;
25439;SDS011;13365;52.208;5.488;2024-02-14T08:41:40;25.02;;;14.68;;
25439;SDS011;13365;52.208;5.488;2024-02-14T08:44:08;22.70;;;14.98;;
25439;SDS011;13365;52.208;5.488;2024-02-14T08:46:35;26.05;;;13.90;;
25439;SDS011;13365;52.208;5.488;2024-02-14T08:49:00;25.35;;;14.50;;
25439;SDS011;13365;52.208;5.488;2024-02-14T08:51:36;23.10;;;14.73;;
25439;SDS011;13365;52.208;5.488;2024-02-14T08:54:02;22.55;;;15.10;;
25439;SDS011;13365;52.208;5.488;2024-02-14T08:56:30;25.48;;;14.57;;
25439;SDS011;13365;52.208;5.488;2024-02-14T08:59:00;21.83;;;13.75;;
25439;SDS011;13365;52.208;5.488;2024-02-14T09:01:27;18.73;;;14.00;;
25439;SDS011;13365;52.208;5.488;2024-02-14T09:03:53;19.63;;;14.27;;
25439;SDS011;13365;52.208;5.488;2024-02-14T09:06:19;21.75;;;13.82;;
25439;SDS011;13365;52.208;5.488;2024-02-14T09:08:44;20.77;;;13.38;;
25439;SDS011;13365;52.208;5.488;2024-02-14T09:11:10;18.73;;;12.00;;
25439;SDS011;13365;52.208;5.488;2024-02-14T09:13:37;21.95;;;12.90;;
25439;SDS011;13365;52.208;5.488;2024-02-14T09:16:03;25.13;;;11.65;;
25439;SDS011;13365;52.208;5.488;2024-02-14T09:18:30;15.88;;;10.65;;
25439;SDS011;13365;52.208;5.488;2024-02-14T09:20:56;17.17;;;10.18;;
25439;SDS011;13365;52.208;5.488;2024-02-14T09:23:22;15.32;;;10.43;;
25439;SDS011;13365;52.208;5.488;2024-02-14T09:25:48;16.15;;;11.13;;
25439;SDS011;13365;52.208;5.488;2024-02-14T09:28:17;16.13;;;9.77;;
25439;SDS011;13365;52.208;5.488;2024-02-14T09:30:44;15.38;;;9.82;;
25439;SDS011;13365;52.208;5.488;2024-02-14T09:33:10;16.52;;;9.75;;
25439;SDS011;13365;52.208;5.488;2024-02-14T09:35:35;14.75;;;9.32;;
25439;SDS011;13365;52.208;5.488;2024-02-14T09:38:03;16.23;;;9.73;;
25439;SDS011;13365;52.208;5.488;2024-02-14T09:40:29;14.77;;;9.50;;
25439;SDS011;13365;52.208;5.488;2024-02-14T09:42:55;13.25;;;8.80;;
25439;SDS011;13365;52.208;5.488;2024-02-14T09:45:26;16.77;;;9.15;;
25439;SDS011;13365;52.208;5.488;2024-02-14T09:47:53;14.75;;;10.20;;
25439;SDS011;13365;52.208;5.488;2024-02-14T09:50:19;13.80;;;9.50;;
25439;SDS011;13365;52.208;5.488;2024-02-14T09:52:48;15.07;;;10.07;;
25439;SDS011;13365;52.208;5.488;2024-02-14T09:55:14;13.25;;;10.13;;
25439;SDS011;13365;52.208;5.488;2024-02-14T09:57:41;14.85;;;10.05;;
25439;SDS011;13365;52.208;5.488;2024-02-14T10:00:11;14.15;;;9.70;;
25439;SDS011;13365;52.208;5.488;2024-02-14T10:02:39;15.18;;;9.70;;
25439;SDS011;13365;52.208;5.488;2024-02-14T10:05:05;17.65;;;8.77;;
25439;SDS011;13365;52.208;5.488;2024-02-14T10:07:39;12.32;;;8.88;;
25439;SDS011;13365;52.208;5.488;2024-02-14T10:10:08;13.98;;;10.10;;
25439;SDS011;13365;52.208;5.488;2024-02-14T10:12:35;16.55;;;11.45;;
25439;SDS011;13365;52.208;5.488;2024-02-14T10:15:01;17.23;;;11.35;;
25439;SDS011;13365;52.208;5.488;2024-02-14T10:17:27;22.23;;;13.95;;
25439;SDS011;13365;52.208;5.488;2024-02-14T10:19:59;26.42;;;14.88;;
25439;SDS011;13365;52.208;5.488;2024-02-14T10:22:36;22.33;;;13.95;;
25439;SDS011;13365;52.208;5.488;2024-02-14T10:25:03;23.23;;;14.73;;
25439;SDS011;13365;52.208;5.488;2024-02-14T10:27:33;20.55;;;13.90;;
25439;SDS011;13365;52.208;5.488;2024-02-14T10:30:06;27.27;;;15.70;;
25439;SDS011;13365;52.208;5.488;2024-02-14T10:32:35;23.83;;;14.93;;
25439;SDS011;13365;52.208;5.488;2024-02-14T10:35:04;22.85;;;14.48;;
25439;SDS011;13365;52.208;5.488;2024-02-14T10:37:33;21.42;;;14.63;;
25439;SDS011;13365;52.208;5.488;2024-02-14T10:40:03;28.48;;;15.10;;
25439;SDS011;13365;52.208;5.488;2024-02-14T10:42:33;19.52;;;13.60;;
25439;SDS011;13365;52.208;5.488;2024-02-14T10:44:59;20.38;;;13.85;;
25439;SDS011;13365;52.208;5.488;2024-02-14T10:47:29;23.15;;;13.02;;
25439;SDS011;13365;52.208;5.488;2024-02-14T10:49:57;16.30;;;11.75;;
25439;SDS011;13365;52.208;5.488;2024-02-14T10:52:26;17.00;;;11.65;;
25439;SDS011;13365;52.208;5.488;2024-02-14T10:54:58;14.77;;;11.20;;
25439;SDS011;13365;52.208;5.488;2024-02-14T10:57:26;17.35;;;11.52;;
25439;SDS011;13365;52.208;5.488;2024-02-14T10:59:54;16.38;;;11.00;;
25439;SDS011;13365;52.208;5.488;2024-02-14T11:02:20;15.75;;;11.68;;
25439;SDS011;13365;52.208;5.488;2024-02-14T11:04:47;15.93;;;10.73;;
25439;SDS011;13365;52.208;5.488;2024-02-14T11:07:18;19.95;;;12.05;;
25439;SDS011;13365;52.208;5.488;2024-02-14T11:09:44;16.88;;;11.85;;
25439;SDS011;13365;52.208;5.488;2024-02-14T11:12:10;19.48;;;11.27;;
25439;SDS011;13365;52.208;5.488;2024-02-14T11:14:36;19.92;;;11.45;;
25439;SDS011;13365;52.208;5.488;2024-02-14T11:17:04;15.25;;;10.60;;
25439;SDS011;13365;52.208;5.488;2024-02-14T11:19:34;17.00;;;10.75;;
25439;SDS011;13365;52.208;5.488;2024-02-14T11:22:10;20.38;;;10.95;;
25439;SDS011;13365;52.208;5.488;2024-02-14T11:24:37;14.95;;;10.05;;
25439;SDS011;13365;52.208;5.488;2024-02-14T11:27:03;13.65;;;9.68;;
25439;SDS011;13365;52.208;5.488;2024-02-14T11:29:35;13.75;;;9.90;;
25439;SDS011;13365;52.208;5.488;2024-02-14T11:32:01;12.13;;;9.52;;
25439;SDS011;13365;52.208;5.488;2024-02-14T11:34:27;16.50;;;10.63;;
25439;SDS011;13365;52.208;5.488;2024-02-14T11:36:53;13.65;;;10.82;;
25439;SDS011;13365;52.208;5.488;2024-02-14T11:39:20;12.95;;;9.95;;
25439;SDS011;13365;52.208;5.488;2024-02-14T11:41:45;11.60;;;9.38;;
25439;SDS011;13365;52.208;5.488;2024-02-14T11:44:11;13.30;;;9.55;;
25439;SDS011;13365;52.208;5.488;2024-02-14T11:46:37;14.25;;;9.98;;
25439;SDS011;13365;52.208;5.488;2024-02-14T11:49:04;13.68;;;9.52;;
25439;SDS011;13365;52.208;5.488;2024-02-14T11:51:30;14.30;;;10.52;;
25439;SDS011;13365;52.208;5.488;2024-02-14T11:53:58;14.88;;;10.27;;
25439;SDS011;13365;52.208;5.488;2024-02-14T11:56:32;12.77;;;9.75;;
25439;SDS011;13365;52.208;5.488;2024-02-14T11:59:01;13.32;;;9.65;;
25439;SDS011;13365;52.208;5.488;2024-02-14T12:01:34;15.10;;;10.40;;
25439;SDS011;13365;52.208;5.488;2024-02-14T12:04:02;12.75;;;10.55;;
25439;SDS011;13365;52.208;5.488;2024-02-14T12:06:34;17.95;;;10.90;;
25439;SDS011;13365;52.208;5.488;2024-02-14T12:09:03;15.30;;;12.25;;
25439;SDS011;13365;52.208;5.488;2024-02-14T12:11:33;18.20;;;13.65;;
25439;SDS011;13365;52.208;5.488;2024-02-14T12:14:02;19.58;;;14.07;;
25439;SDS011;13365;52.208;5.488;2024-02-14T12:16:28;19.48;;;15.07;;
25439;SDS011;13365;52.208;5.488;2024-02-14T12:19:08;18.55;;;13.90;;
25439;SDS011;13365;52.208;5.488;2024-02-14T12:21:44;20.77;;;12.88;;
25439;SDS011;13365;52.208;5.488;2024-02-14T12:24:10;17.95;;;12.80;;
25439;SDS011;13365;52.208;5.488;2024-02-14T12:26:38;18.15;;;12.65;;
25439;SDS011;13365;52.208;5.488;2024-02-14T12:29:05;22.65;;;13.00;;
25439;SDS011;13365;52.208;5.488;2024-02-14T12:31:35;17.38;;;12.75;;
25439;SDS011;13365;52.208;5.488;2024-02-14T12:34:02;19.60;;;12.20;;
25439;SDS011;13365;52.208;5.488;2024-02-14T12:36:30;15.88;;;11.57;;
25439;SDS011;13365;52.208;5.488;2024-02-14T12:38:57;17.60;;;11.27;;
25439;SDS011;13365;52.208;5.488;2024-02-14T12:41:23;14.02;;;10.00;;
25439;SDS011;13365;52.208;5.488;2024-02-14T12:43:51;15.70;;;11.13;;
25439;SDS011;13365;52.208;5.488;2024-02-14T12:46:17;15.85;;;10.57;;
25439;SDS011;13365;52.208;5.488;2024-02-14T12:48:43;16.13;;;10.25;;
25439;SDS011;13365;52.208;5.488;2024-02-14T12:51:09;17.88;;;10.45;;
25439;SDS011;13365;52.208;5.488;2024-02-14T12:53:35;12.52;;;9.63;;
25439;SDS011;13365;52.208;5.488;2024-02-14T12:56:02;11.73;;;8.73;;
25439;SDS011;13365;52.208;5.488;2024-02-14T12:58:31;15.07;;;9.38;;
25439;SDS011;13365;52.208;5.488;2024-02-14T13:00:57;14.13;;;9.27;;
25439;SDS011;13365;52.208;5.488;2024-02-14T13:03:23;11.93;;;8.38;;
25439;SDS011;13365;52.208;5.488;2024-02-14T13:05:53;12.45;;;7.90;;
25439;SDS011;13365;52.208;5.488;2024-02-14T13:08:19;11.40;;;7.75;;
25439;SDS011;13365;52.208;5.488;2024-02-14T13:10:45;9.80;;;7.35;;
25439;SDS011;13365;52.208;5.488;2024-02-14T13:13:10;12.20;;;6.90;;
25439;SDS011;13365;52.208;5.488;2024-02-14T13:15:37;11.52;;;6.97;;
25439;SDS011;13365;52.208;5.488;2024-02-14T13:18:02;8.07;;;6.20;;
25439;SDS011;13365;52.208;5.488;2024-02-14T13:20:28;8.38;;;6.00;;
25439;SDS011;13365;52.208;5.488;2024-02-14T13:22:54;6.82;;;5.10;;
25439;SDS011;13365;52.208;5.488;2024-02-14T13:25:20;7.97;;;4.78;;
25439;SDS011;13365;52.208;5.488;2024-02-14T13:27:46;6.07;;;4.53;;
25439;SDS011;13365;52.208;5.488;2024-02-14T13:30:12;6.28;;;4.70;;
25439;SDS011;13365;52.208;5.488;2024-02-14T13:32:38;6.40;;;4.53;;
25439;SDS011;13365;52.208;5.488;2024-02-14T13:35:04;7.95;;;5.10;;
25439;SDS011;13365;52.208;5.488;2024-02-14T13:37:33;7.07;;;5.05;;
25439;SDS011;13365;52.208;5.488;2024-02-14T13:39:59;10.82;;;5.45;;
25439;SDS011;13365;52.208;5.488;2024-02-14T13:42:24;8.13;;;5.85;;
25439;SDS011;13365;52.208;5.488;2024-02-14T13:44:50;9.40;;;6.28;;
25439;SDS011;13365;52.208;5.488;2024-02-14T13:47:19;9.10;;;6.18;;
25439;SDS011;13365;52.208;5.488;2024-02-14T13:49:45;9.32;;;6.15;;
25439;SDS011;13365;52.208;5.488;2024-02-14T13:52:11;7.88;;;6.00;;
25439;SDS011;13365;52.208;5.488;2024-02-14T13:54:36;8.90;;;6.05;;
25439;SDS011;13365;52.208;5.488;2024-02-14T13:57:02;7.63;;;5.60;;
25439;SDS011;13365;52.208;5.488;2024-02-14T13:59:28;6.78;;;5.22;;
25439;SDS011;13365;52.208;5.488;2024-02-14T14:01:54;7.40;;;5.53;;
25439;SDS011;13365;52.208;5.488;2024-02-14T14:04:20;6.38;;;5.18;;
25439;SDS011;13365;52.208;5.488;2024-02-14T14:06:46;7.95;;;5.78;;
25439;SDS011;13365;52.208;5.488;2024-02-14T14:09:12;6.82;;;4.80;;
25439;SDS011;13365;52.208;5.488;2024-02-14T14:11:38;8.40;;;5.13;;
25439;SDS011;13365;52.208;5.488;2024-02-14T14:14:04;8.30;;;5.07;;
25439;SDS011;13365;52.208;5.488;2024-02-14T14:16:30;9.55;;;5.05;;
25439;SDS011;13365;52.208;5.488;2024-02-14T14:18:58;5.90;;;5.07;;
25439;SDS011;13365;52.208;5.488;2024-02-14T14:21:24;6.60;;;5.10;;
25439;SDS011;13365;52.208;5.488;2024-02-14T14:23:49;7.32;;;4.30;;
25439;SDS011;13365;52.208;5.488;2024-02-14T14:26:15;6.10;;;4.47;;